Time;durP1;ratioP1;P1;durP2;ratioP2;P2;SDS_P1;SDS_P2;PMS_P1;PMS_P2;Temp;Humidity;BMP_temperature;BMP_pressure;BME280_temperature;BME280_humidity;BME280_pressure;Samples;Min_cycle;Max_cycle;Signal;HPM_P1;HPM_P2
2021/12/31 00:00:24;;;;;;;22.11;19.88;;;;;;;1.00;84.88;101239.17;441869;117;922597;-76
2021/12/31 00:01:27;;;;;;;25.81;21.82;;;;;;;1.00;84.88;101229.28;443335;117;922947;-77
2021/12/31 00:02:31;;;;;;;21.19;19.21;;;;;;;1.00;84.92;101231.97;442113;118;922725;-77
2021/12/31 00:03:34;;;;;;;21.96;19.85;;;;;;;1.01;84.91;101233.67;441613;117;930605;-76
2021/12/31 00:04:38;;;;;;;21.41;19.45;;;;;;;1.02;84.92;101240.74;441014;118;922985;-76
2021/12/31 00:05:41;;;;;;;23.23;21.02;;;;;;;1.02;84.94;101232.69;433896;119;930595;-76
2021/12/31 00:06:45;;;;;;;23.12;20.91;;;;;;;1.02;84.87;101234.52;442605;118;924678;-76
2021/12/31 00:07:48;;;;;;;22.37;19.98;;;;;;;1.02;84.85;101235.38;442094;118;923463;-76
2021/12/31 00:08:51;;;;;;;23.47;21.04;;;;;;;1.02;84.83;101237.20;441089;118;922746;-76
2021/12/31 00:09:59;;;;;;;23.07;20.99;;;;;;;1.01;84.82;101227.45;439601;118;930951;-76
2021/12/31 00:11:01;;;;;;;20.71;18.86;;;;;;;1.00;84.82;101225.74;441256;118;923096;-76
2021/12/31 00:12:07;;;;;;;23.58;20.70;;;;;;;1.01;84.77;101230.98;440893;120;922724;-76
2021/12/31 00:13:11;;;;;;;21.50;19.46;;;;;;;1.00;84.78;101231.11;435773;120;922672;-76
2021/12/31 00:14:15;;;;;;;22.61;20.29;;;;;;;1.00;84.77;101240.02;433785;120;922660;-76
2021/12/31 00:15:18;;;;;;;23.22;20.76;;;;;;;1.00;84.73;101241.85;434152;120;931033;-76
2021/12/31 00:16:23;;;;;;;24.38;21.97;;;;;;;1.00;84.73;101237.33;436877;120;922740;-76
2021/12/31 00:17:27;;;;;;;22.74;20.71;;;;;;;0.99;84.67;101240.18;443450;118;922644;-76
2021/12/31 00:18:30;;;;;;;25.27;21.12;;;;;;;0.99;84.70;101241.03;440788;118;922759;-76
2021/12/31 00:19:39;;;;;;;23.36;21.22;;;;;;;0.99;84.76;101238.34;432947;121;930226;-77
2021/12/31 00:20:40;;;;;;;21.53;19.62;;;;;;;1.00;84.74;101241.85;441362;118;922633;-76
2021/12/31 00:21:47;;;;;;;22.86;20.59;;;;;;;0.99;84.73;101232.98;442086;118;922514;-76
2021/12/31 00:23:03;;;;;;;22.93;20.63;;;;;;;0.98;84.71;101239.33;441148;118;922659;-76
2021/12/31 00:24:04;;;;;;;23.98;21.56;;;;;;;0.97;84.67;101234.08;441618;118;922997;-76
2021/12/31 00:25:08;;;;;;;24.94;22.46;;;;;;;0.95;84.68;101236.90;440961;118;922798;-76
2021/12/31 00:26:11;;;;;;;24.68;22.09;;;;;;;0.95;84.65;101231.53;440121;118;922682;-77
2021/12/31 00:27:15;;;;;;;23.41;21.16;;;;;;;0.94;84.60;101248.62;441122;118;922959;-77
2021/12/31 00:28:18;;;;;;;24.41;22.05;;;;;;;0.96;84.61;101240.44;440237;117;922578;-76
2021/12/31 00:29:21;;;;;;;25.02;22.21;;;;;;;0.95;84.60;101246.78;440166;118;923704;-77
2021/12/31 00:30:25;;;;;;;24.02;21.49;;;;;;;0.95;84.62;101252.16;439793;119;930371;-76
2021/12/31 00:31:28;;;;;;;24.27;21.77;;;;;;;0.95;84.62;101244.10;449422;118;930575;-75
2021/12/31 00:32:32;;;;;;;23.22;21.01;;;;;;;0.96;84.72;101243.97;444284;117;923146;-76
2021/12/31 00:33:35;;;;;;;24.91;22.44;;;;;;;0.96;84.68;101252.03;440738;118;930663;-76
2021/12/31 00:34:39;;;;;;;26.42;23.44;;;;;;;0.94;84.67;101237.88;446644;118;930375;-76
2021/12/31 00:35:42;;;;;;;23.27;20.94;;;;;;;0.95;84.76;101233.36;446206;116;922518;-76
2021/12/31 00:36:46;;;;;;;23.73;21.37;;;;;;;0.94;84.79;101243.25;449123;116;922771;-76
2021/12/31 00:37:50;;;;;;;23.77;21.24;;;;;;;0.96;84.81;101246.66;449824;115;922529;-76
2021/12/31 00:38:53;;;;;;;24.81;22.27;;;;;;;0.94;84.80;101237.88;443785;118;923065;-76
2021/12/31 00:39:57;;;;;;;24.19;21.80;;;;;;;0.95;84.77;101242.27;449198;117;922651;-75
2021/12/31 00:41:00;;;;;;;24.74;22.14;;;;;;;0.94;84.81;101235.19;449158;116;922877;-76
2021/12/31 00:42:04;;;;;;;24.94;22.30;;;;;;;0.93;84.74;101236.20;449416;116;930211;-76
2021/12/31 00:43:10;;;;;;;24.37;22.09;;;;;;;0.94;84.76;101235.19;450825;116;930362;-76
2021/12/31 00:44:12;;;;;;;24.88;22.11;;;;;;;0.93;84.75;101232.67;451201;115;923643;-76
2021/12/31 00:45:19;;;;;;;20.57;18.57;;;;;;;0.91;84.69;101235.48;451058;116;923615;-76
2021/12/31 00:46:23;;;;;;;22.56;20.40;;;;;;;0.91;84.65;101232.80;451768;116;922958;-76
2021/12/31 00:47:26;;;;;;;21.89;19.73;;;;;;;0.91;84.67;101240.85;450506;116;922689;-76
2021/12/31 00:48:30;;;;;;;23.58;21.19;;;;;;;0.91;84.70;101230.11;450745;115;930739;-76
2021/12/31 00:49:33;;;;;;;22.15;20.03;;;;;;;0.92;84.73;101242.55;451846;116;922792;-77
2021/12/31 00:50:37;;;;;;;22.70;20.33;;;;;;;0.91;84.73;101235.48;449913;116;923025;-77
2021/12/31 00:51:41;;;;;;;22.01;19.91;;;;;;;0.92;84.72;101230.97;450630;115;922601;-76
2021/12/31 00:52:44;;;;;;;24.63;21.11;;;;;;;0.90;84.71;101228.41;450777;116;923004;-75
2021/12/31 00:53:48;;;;;;;23.06;20.93;;;;;;;0.89;84.66;101226.70;451120;116;930596;-75
2021/12/31 00:54:51;;;;;;;23.92;20.80;;;;;;;0.90;84.65;101235.61;451812;116;930602;-75
2021/12/31 00:55:54;;;;;;;22.54;20.19;;;;;;;0.88;84.64;101241.14;449799;116;923037;-75
2021/12/31 00:57:02;;;;;;;22.54;20.39;;;;;;;0.87;84.60;101238.58;451336;116;922523;-75
2021/12/31 00:58:05;;;;;;;23.72;21.13;;;;;;;0.86;84.58;101244.93;450676;116;922570;-76
2021/12/31 00:59:08;;;;;;;21.71;19.49;;;;;;;0.86;84.56;101242.25;449875;115;922569;-76
2021/12/31 01:00:15;;;;;;;21.04;18.85;;;;;;;0.84;84.57;101243.22;450411;116;923293;-77
2021/12/31 01:01:21;;;;;;;22.22;19.87;;;;;;;0.84;84.54;101245.91;440884;120;931554;-76
2021/12/31 01:02:27;;;;;;;21.89;19.68;;;;;;;0.82;84.56;101241.68;447382;116;922525;-75
2021/12/31 01:03:30;;;;;;;23.79;21.43;;;;;;;0.82;84.52;101239.00;449473;115;922792;-77
2021/12/31 01:04:34;;;;;;;22.61;20.34;;;;;;;0.81;84.54;101237.29;449572;118;922785;-75
2021/12/31 01:05:37;;;;;;;22.03;20.01;;;;;;;0.80;84.56;101235.59;449165;117;923004;-75
2021/12/31 01:06:41;;;;;;;21.61;19.50;;;;;;;0.80;84.56;101235.59;450239;115;922684;-76
2021/12/31 01:07:45;;;;;;;21.51;19.40;;;;;;;0.80;84.58;101230.22;450224;116;922669;-76
2021/12/31 01:08:49;;;;;;;21.12;19.09;;;;;;;0.81;84.64;101232.77;451185;116;922666;-76
2021/12/31 01:09:54;;;;;;;22.44;20.25;;;;;;;0.82;84.65;101239.00;452055;116;923347;-76
2021/12/31 01:10:57;;;;;;;22.94;20.57;;;;;;;0.84;84.64;101237.00;449985;115;923147;-76
2021/12/31 01:12:01;;;;;;;24.26;21.44;;;;;;;0.82;84.62;101234.48;445815;118;922559;-76
2021/12/31 01:13:09;;;;;;;23.38;20.95;;;;;;;0.82;84.63;101222.89;442246;119;922695;-77
2021/12/31 01:14:21;;;;;;;22.93;20.57;;;;;;;0.81;84.61;101238.14;445366;117;922960;-76
2021/12/31 01:15:36;;;;;;;21.67;19.47;;;;;;;0.81;84.60;101230.09;447722;116;922815;-75
2021/12/31 01:16:36;;;;;;;22.99;20.63;;;;;;;0.81;84.58;101230.09;446964;116;922625;-76
2021/12/31 01:19:57;;;;;;;22.79;20.54;;;;;;;0.81;84.66;101229.23;443866;119;922676;-74
2021/12/31 01:21:00;;;;;;;23.39;20.23;;;;;;;0.80;84.67;101223.02;441011;118;922696;-76
2021/12/31 01:22:04;;;;;;;22.32;20.02;;;;;;;0.81;84.74;101231.92;450901;114;923002;-76
2021/12/31 01:23:09;;;;;;;22.96;20.69;;;;;;;0.81;84.77;101222.04;458724;114;930570;-76
2021/12/31 01:24:13;;;;;;;24.55;22.04;;;;;;;0.80;84.76;101216.80;459599;114;922581;-76
2021/12/31 01:25:16;;;;;;;24.92;22.38;;;;;;;0.79;84.74;101218.62;459844;114;922594;-77
2021/12/31 01:26:23;;;;;;;24.93;22.17;;;;;;;0.79;84.74;101220.46;458020;113;922717;-77
2021/12/31 01:27:26;;;;;;;24.04;21.77;;;;;;;0.79;84.76;101212.41;458653;114;922713;-76
2021/12/31 01:28:30;;;;;;;24.98;21.37;;;;;;;0.79;84.73;101218.62;458331;114;922752;-76
2021/12/31 01:29:33;;;;;;;22.16;20.03;;;;;;;0.80;84.69;101212.28;458076;113;930386;-76
2021/12/31 01:30:36;;;;;;;21.36;19.22;;;;;;;0.79;84.72;101217.78;458497;114;923087;-76
2021/12/31 01:31:40;;;;;;;24.73;21.00;;;;;;;0.80;84.67;101216.80;457192;114;930728;-75
2021/12/31 01:32:45;;;;;;;23.29;20.99;;;;;;;0.79;84.68;101213.27;456644;113;930733;-75
2021/12/31 01:33:48;;;;;;;27.76;22.86;;;;;;;0.79;84.41;101212.41;456825;114;922553;-76
2021/12/31 01:34:52;;;;;;;23.73;21.10;;;;;;;0.79;84.65;101217.78;456631;114;923298;-76
2021/12/31 01:35:55;;;;;;;23.38;21.07;;;;;;;0.79;84.72;101210.58;456961;114;922965;-76
2021/12/31 01:36:59;;;;;;;22.90;20.59;;;;;;;0.80;84.75;101212.28;457848;114;922686;-75
2021/12/31 01:38:02;;;;;;;21.74;19.54;;;;;;;0.80;84.81;101208.75;459047;114;922807;-75
2021/12/31 01:39:06;;;;;;;21.37;19.24;;;;;;;0.82;84.81;101212.16;455576;114;922596;-75
2021/12/31 01:40:10;;;;;;;21.98;19.82;;;;;;;0.83;84.84;101209.31;457495;114;930874;-76
2021/12/31 01:41:14;;;;;;;24.87;21.20;;;;;;;0.84;84.83;101219.06;439147;118;922613;-75
2021/12/31 01:42:22;;;;;;;24.12;21.51;;;;;;;0.84;84.79;101213.70;456991;114;923169;-75
2021/12/31 01:43:22;;;;;;;22.58;19.32;;;;;;;0.84;84.79;101210.16;457913;114;925298;-76
2021/12/31 01:44:34;;;;;;;24.32;21.56;;;;;;;0.86;84.85;101215.41;456641;113;923638;-76
2021/12/31 01:45:43;;;;;;;27.29;22.63;;;;;;;0.85;84.82;101206.50;455105;114;930306;-76
2021/12/31 01:46:57;;;;;;;25.74;23.06;;;;;;;0.86;84.81;101212.72;455384;114;923040;-76
2021/12/31 01:48:09;;;;;;;22.47;20.31;;;;;;;0.86;84.80;101210.89;457561;114;923013;-76
2021/12/31 01:49:20;;;;;;;24.93;21.02;;;;;;;0.85;84.80;101203.81;457336;114;923053;-75
2021/12/31 01:50:17;;;;;;;20.37;18.26;;;;;;;0.84;84.78;101200.28;456364;114;923177;-76
2021/12/31 01:51:20;;;;;;;26.14;20.59;;;;;;;0.83;84.81;101206.63;457423;114;923159;-75
2021/12/31 01:52:25;;;;;;;23.39;21.00;;;;;;;0.82;84.78;101201.42;457839;114;922979;-76
2021/12/31 01:53:28;;;;;;;29.11;24.38;;;;;;;0.82;84.78;101198.73;456295;114;922656;-76
2021/12/31 01:54:33;;;;;;;26.66;22.84;;;;;;;0.82;84.78;101206.78;457581;114;923677;-76
2021/12/31 01:55:36;;;;;;;24.77;22.13;;;;;;;0.82;84.81;101204.95;456179;114;922515;-76
2021/12/31 01:56:40;;;;;;;28.09;25.06;;;;;;;0.83;84.82;101201.25;457694;113;922605;-75
2021/12/31 01:57:43;;;;;;;28.07;23.13;;;;;;;0.84;84.87;101199.42;455756;114;930273;-75
2021/12/31 01:58:50;;;;;;;25.21;22.05;;;;;;;0.83;84.90;101198.57;456618;114;930520;-76
2021/12/31 01:59:54;;;;;;;27.43;22.90;;;;;;;0.86;84.84;101199.30;456237;114;922635;-76
2021/12/31 02:01:03;;;;;;;24.58;21.61;;;;;;;0.84;84.85;101199.42;457613;114;923063;-75
2021/12/31 02:02:05;;;;;;;25.73;22.94;;;;;;;0.86;84.81;101201.98;457862;114;923001;-75
2021/12/31 02:03:08;;;;;;;24.00;21.50;;;;;;;0.86;84.78;101204.66;457342;114;922567;-75
2021/12/31 02:04:12;;;;;;;29.38;23.83;;;;;;;0.84;84.75;101199.42;456952;114;922600;-74
2021/12/31 02:05:16;;;;;;;27.31;24.13;;;;;;;0.86;84.72;101199.30;457760;114;922607;-75
2021/12/31 02:06:20;;;;;;;27.55;24.43;;;;;;;0.84;84.67;101197.59;456947;114;930342;-75
2021/12/31 02:07:23;;;;;;;29.06;25.12;;;;;;;0.84;84.70;101186.86;456623;114;922555;-75
2021/12/31 02:08:28;;;;;;;28.82;24.82;;;;;;;0.86;84.72;101191.24;456110;114;923244;-77
2021/12/31 02:09:37;;;;;;;31.33;25.91;;;;;;;0.87;84.80;101184.89;457899;114;922633;-74
2021/12/31 02:10:37;;;;;;;28.02;24.52;;;;;;;0.88;84.83;101190.13;457128;114;922563;-73
2021/12/31 02:11:41;;;;;;;25.98;23.26;;;;;;;0.90;84.80;101193.51;457743;113;922735;-75
2021/12/31 02:12:46;;;;;;;27.21;23.70;;;;;;;0.90;84.80;101196.19;448206;116;923234;-76
2021/12/31 02:13:50;;;;;;;30.80;25.21;;;;;;;0.91;84.83;101202.41;449610;114;922978;-75
2021/12/31 02:14:53;;;;;;;27.17;24.15;;;;;;;0.91;84.83;101195.21;457122;114;922904;-75
2021/12/31 02:15:56;;;;;;;25.45;22.42;;;;;;;0.93;84.83;101195.94;457201;114;922682;-75
2021/12/31 02:17:00;;;;;;;27.21;24.20;;;;;;;0.92;84.82;101199.60;457047;114;923280;-74
2021/12/31 02:18:08;;;;;;;26.56;22.60;;;;;;;0.93;84.81;101203.98;457409;114;923172;-76
2021/12/31 02:19:14;;;;;;;25.72;22.83;;;;;;;0.92;84.80;101209.48;455876;114;922698;-77
2021/12/31 02:20:36;;;;;;;23.74;21.59;;;;;;;1.04;84.76;101206.56;473924;110;947214;-74
2021/12/31 02:21:44;;;;;;;24.33;21.84;;;;;;;0.92;84.69;101199.60;463515;114;922711;-76
2021/12/31 02:22:55;;;;;;;24.76;21.97;;;;;;;0.92;84.69;101202.28;463870;112;922639;-76
2021/12/31 02:24:02;;;;;;;25.49;22.46;;;;;;;0.92;84.66;101196.06;462825;113;922749;-76
2021/12/31 02:25:01;;;;;;;25.39;22.56;;;;;;;0.90;84.63;101193.51;463172;113;922625;-75
2021/12/31 02:26:08;;;;;;;22.56;20.41;;;;;;;0.90;84.66;101195.34;463413;112;922625;-76
2021/12/31 02:27:11;;;;;;;23.54;21.27;;;;;;;0.90;84.66;101198.03;462176;113;922613;-75
2021/12/31 02:28:15;;;;;;;23.30;20.86;;;;;;;0.91;84.65;101191.67;464469;114;922691;-75
2021/12/31 02:29:21;;;;;;;21.90;19.68;;;;;;;0.90;84.65;101193.51;463403;112;922566;-75
2021/12/31 02:30:27;;;;;;;19.88;17.93;;;;;;;0.90;84.67;101200.71;463315;112;922825;-75
2021/12/31 02:31:31;;;;;;;24.25;21.69;;;;;;;0.89;84.62;101194.48;463337;113;924151;-75
2021/12/31 02:32:34;;;;;;;24.33;20.67;;;;;;;0.89;84.62;101197.17;464722;114;923034;-76
2021/12/31 02:33:39;;;;;;;24.66;21.59;;;;;;;0.89;84.66;101193.64;464692;113;922655;-75
2021/12/31 02:34:42;;;;;;;22.91;20.68;;;;;;;0.89;84.67;101197.17;463002;113;922630;-75
2021/12/31 02:35:46;;;;;;;23.93;21.51;;;;;;;0.88;84.64;101195.50;464214;113;922789;-75
2021/12/31 02:36:50;;;;;;;23.62;21.36;;;;;;;0.89;84.69;101186.44;464559;113;922545;-75
2021/12/31 02:37:54;;;;;;;22.19;20.08;;;;;;;0.90;84.71;101193.51;463307;113;922670;-76
2021/12/31 02:38:57;;;;;;;22.15;19.99;;;;;;;0.91;84.75;101195.21;463867;113;930616;-75
2021/12/31 02:40:06;;;;;;;23.80;21.56;;;;;;;0.93;84.77;101195.94;463557;113;922710;-76
2021/12/31 02:41:09;;;;;;;24.53;21.66;;;;;;;0.95;84.77;101196.63;463120;113;922568;-76
2021/12/31 02:42:13;;;;;;;21.01;18.86;;;;;;;0.94;84.75;101200.30;463569;113;922638;-74
2021/12/31 02:43:16;;;;;;;21.46;19.01;;;;;;;0.95;84.73;101201.14;464061;113;922616;-75
2021/12/31 02:44:19;;;;;;;21.91;19.81;;;;;;;0.94;84.72;101202.16;461893;114;922680;-75
2021/12/31 02:45:36;;;;;;;22.32;20.05;;;;;;;0.92;84.68;101204.97;461740;113;922889;-73
2021/12/31 02:46:38;;;;;;;19.60;17.71;;;;;;;0.92;84.71;101213.02;463104;113;922559;-75
2021/12/31 02:47:45;;;;;;;20.41;18.41;;;;;;;0.92;84.79;101204.97;463962;113;922556;-76
2021/12/31 02:48:56;;;;;;;20.40;18.51;;;;;;;0.93;84.76;101203.98;464044;113;923171;-76
2021/12/31 02:49:56;;;;;;;19.27;17.39;;;;;;;0.94;84.76;101210.21;463025;113;922910;-75
2021/12/31 02:51:01;;;;;;;19.46;17.57;;;;;;;0.93;84.73;101211.19;464418;114;922619;-76
2021/12/31 02:52:07;;;;;;;21.90;19.58;;;;;;;0.91;84.74;101197.90;463517;113;922989;-74
2021/12/31 02:53:14;;;;;;;19.89;18.03;;;;;;;0.90;84.68;101212.30;464278;113;922654;-76
2021/12/31 02:54:19;;;;;;;19.29;17.43;;;;;;;0.89;84.63;101210.59;462964;114;922461;-75
2021/12/31 02:55:24;;;;;;;20.04;18.09;;;;;;;0.89;84.59;101209.74;464969;114;922965;-75
2021/12/31 02:56:29;;;;;;;21.03;18.62;;;;;;;0.87;84.63;101214.42;463339;113;930592;-75
2021/12/31 02:57:32;;;;;;;21.96;19.49;;;;;;;0.87;84.61;101225.16;462466;113;923129;-75
2021/12/31 02:58:39;;;;;;;22.81;20.57;;;;;;;0.86;84.55;101223.45;464191;114;923107;-75
2021/12/31 02:59:44;;;;;;;20.01;18.03;;;;;;;0.84;84.53;101218.21;463960;112;922586;-75
2021/12/31 03:00:47;;;;;;;20.64;18.32;;;;;;;0.83;84.58;101222.73;463129;113;922601;-76
2021/12/31 03:01:52;;;;;;;21.16;19.12;;;;;;;0.83;84.56;101229.93;464275;114;922627;-72
2021/12/31 03:02:57;;;;;;;22.39;20.12;;;;;;;0.82;84.68;101236.31;463293;112;927189;-74
2021/12/31 03:04:03;;;;;;;20.98;18.97;;;;;;;0.82;84.63;101228.26;462971;113;922712;-76
2021/12/31 03:05:09;;;;;;;19.72;17.82;;;;;;;0.82;84.66;101222.89;464084;113;922619;-75
2021/12/31 03:06:13;;;;;;;22.47;20.12;;;;;;;0.83;84.68;101224.56;464752;114;922747;-75
2021/12/31 03:07:18;;;;;;;21.03;19.02;;;;;;;0.85;84.72;101227.97;463115;113;923042;-74
2021/12/31 03:08:25;;;;;;;20.94;18.97;;;;;;;0.87;84.70;101225.16;463263;112;930649;-75
2021/12/31 03:09:28;;;;;;;20.96;19.03;;;;;;;0.86;84.78;101224.31;464181;114;922629;-75
2021/12/31 03:10:33;;;;;;;22.24;19.86;;;;;;;0.87;84.78;101219.79;463975;113;922563;-76
2021/12/31 03:11:37;;;;;;;22.14;19.41;;;;;;;0.87;84.79;101220.64;463900;112;923773;-76
2021/12/31 03:12:41;;;;;;;22.25;19.69;;;;;;;0.89;84.81;101218.66;464307;113;922762;-76
2021/12/31 03:13:51;;;;;;;21.44;19.18;;;;;;;0.90;84.84;101211.45;463198;114;930479;-76
2021/12/31 03:14:54;;;;;;;21.15;19.14;;;;;;;0.91;84.81;101210.47;463147;113;922476;-75
2021/12/31 03:15:59;;;;;;;19.08;17.21;;;;;;;0.91;84.80;101210.47;463643;113;922564;-75
2021/12/31 03:17:04;;;;;;;19.99;18.10;;;;;;;0.91;84.79;101211.32;463899;113;922609;-75
2021/12/31 03:18:09;;;;;;;19.54;17.84;;;;;;;0.92;84.77;101201.44;462744;113;922455;-76
2021/12/31 03:19:13;;;;;;;21.18;18.99;;;;;;;0.91;84.73;101214.00;463489;113;922542;-74
2021/12/31 03:20:35;;;;;;;22.23;19.87;;;;;;;0.92;84.75;101190.70;462188;113;922640;-75
2021/12/31 03:21:24;;;;;;;21.08;18.98;;;;;;;0.92;84.79;101193.37;456692;115;922963;-75
2021/12/31 03:22:27;;;;;;;19.48;17.17;;;;;;;0.93;84.83;101203.98;458571;114;922505;-76
2021/12/31 03:23:32;;;;;;;19.84;17.89;;;;;;;0.94;84.84;101205.66;458610;114;930535;-75
2021/12/31 03:24:35;;;;;;;22.20;20.05;;;;;;;0.96;84.84;101186.73;459351;114;922528;-75
2021/12/31 03:25:38;;;;;;;20.48;18.44;;;;;;;0.98;84.85;101174.89;458688;114;922914;-74
2021/12/31 03:26:41;;;;;;;18.01;15.79;;;;;;;0.99;84.87;101186.48;459094;114;922585;-75
2021/12/31 03:27:45;;;;;;;18.34;16.70;;;;;;;1.00;84.89;101191.69;459041;114;922575;-75
2021/12/31 03:28:49;;;;;;;19.90;18.02;;;;;;;1.01;84.90;101198.77;459652;114;924798;-75
2021/12/31 03:29:53;;;;;;;22.90;20.64;;;;;;;1.00;84.86;101183.63;458147;114;922731;-76
2021/12/31 03:30:56;;;;;;;21.10;19.10;;;;;;;1.00;84.88;101189.00;458482;114;922719;-73
2021/12/31 03:31:59;;;;;;;21.76;19.63;;;;;;;1.00;84.89;101198.89;458550;114;930679;-74
2021/12/31 03:33:03;;;;;;;23.77;20.70;;;;;;;1.02;84.98;101191.56;459596;115;922814;-75
2021/12/31 03:34:06;;;;;;;25.23;21.59;;;;;;;1.01;84.87;101181.80;457896;114;922392;-76
2021/12/31 03:35:10;;;;;;;21.74;19.55;;;;;;;1.01;84.91;101177.28;458894;113;922910;-76
2021/12/31 03:36:13;;;;;;;22.06;19.87;;;;;;;1.02;84.96;101176.30;459140;114;923093;-75
2021/12/31 03:37:17;;;;;;;22.74;20.20;;;;;;;1.05;84.97;101167.10;458608;114;922759;-75
2021/12/31 03:38:20;;;;;;;22.61;19.89;;;;;;;1.05;85.01;101173.32;457951;114;922540;-76
2021/12/31 03:39:24;;;;;;;20.92;18.79;;;;;;;1.07;85.07;101173.19;457887;114;922526;-75
2021/12/31 03:40:27;;;;;;;21.37;19.12;;;;;;;1.08;85.12;101181.12;458154;113;930655;-76
2021/12/31 03:41:31;;;;;;;18.77;16.91;;;;;;;1.10;85.14;101170.25;457865;114;930839;-76
2021/12/31 03:42:34;;;;;;;20.49;18.47;;;;;;;1.09;85.12;101166.71;458762;114;922920;-75
2021/12/31 03:43:38;;;;;;;20.76;18.67;;;;;;;1.09;85.09;101171.23;459139;114;922609;-76
2021/12/31 03:44:42;;;;;;;23.86;18.27;;;;;;;1.09;85.09;101166.71;458869;114;922593;-76
2021/12/31 03:45:50;;;;;;;20.33;18.28;;;;;;;1.09;85.09;101160.48;458254;114;922878;-74
2021/12/31 03:46:51;;;;;;;25.21;19.89;;;;;;;1.09;85.06;101164.02;458589;114;930453;-74
2021/12/31 03:47:54;;;;;;;21.77;19.49;;;;;;;1.08;85.06;101158.78;458267;114;923147;-74
2021/12/31 03:48:58;;;;;;;18.48;16.59;;;;;;;1.09;85.07;101172.08;457160;114;922483;-76
2021/12/31 03:50:01;;;;;;;19.55;17.57;;;;;;;1.09;85.00;101168.55;457780;113;930532;-75
2021/12/31 03:51:04;;;;;;;21.45;18.87;;;;;;;1.09;84.96;101161.34;458463;114;930463;-76
2021/12/31 03:52:08;;;;;;;22.67;18.04;;;;;;;1.08;84.91;101159.63;459275;113;923497;-75
2021/12/31 03:53:12;;;;;;;18.01;16.32;;;;;;;1.08;84.87;101167.69;456393;114;923125;-75
2021/12/31 03:54:15;;;;;;;20.34;17.60;;;;;;;1.07;84.83;101165.98;458410;114;930465;-75
2021/12/31 03:55:18;;;;;;;20.27;18.21;;;;;;;1.05;84.83;101165.27;460400;115;930485;-74
2021/12/31 03:56:24;;;;;;;21.81;18.69;;;;;;;1.05;84.79;101165.27;459258;114;922735;-75
2021/12/31 03:57:27;;;;;;;20.61;17.44;;;;;;;1.05;84.79;101161.73;458723;114;930596;-75
2021/12/31 03:58:30;;;;;;;19.39;17.41;;;;;;;1.04;84.79;101160.06;459057;114;922561;-75
2021/12/31 03:59:34;;;;;;;21.11;17.09;;;;;;;1.05;84.75;101167.10;458274;114;922525;-75
2021/12/31 04:00:37;;;;;;;18.52;16.79;;;;;;;1.04;84.72;101168.11;457955;113;930641;-74
2021/12/31 04:01:41;;;;;;;21.72;18.50;;;;;;;1.03;84.70;101166.41;458322;114;922543;-74
2021/12/31 04:02:45;;;;;;;21.78;18.49;;;;;;;1.02;84.68;101157.50;459264;114;922532;-74
2021/12/31 04:03:48;;;;;;;19.11;17.37;;;;;;;1.02;84.70;101159.34;457947;114;923067;-75
2021/12/31 04:04:52;;;;;;;19.37;17.44;;;;;;;1.01;84.75;101158.48;458172;114;930827;-76
2021/12/31 04:05:55;;;;;;;20.36;18.43;;;;;;;1.02;84.77;101153.97;458214;114;922747;-74
2021/12/31 04:06:59;;;;;;;23.36;19.32;;;;;;;1.01;84.75;101161.17;459535;115;930469;-74
2021/12/31 04:08:03;;;;;;;19.50;17.03;;;;;;;1.00;84.69;101159.47;458380;114;923182;-74
2021/12/31 04:09:06;;;;;;;23.41;19.69;;;;;;;0.99;84.66;101163.16;458140;113;930562;-75
2021/12/31 04:10:10;;;;;;;22.10;19.84;;;;;;;0.98;84.60;101164.15;458531;114;922680;-74
2021/12/31 04:11:14;;;;;;;24.31;20.95;;;;;;;0.99;84.55;101155.11;458442;114;923830;-74
2021/12/31 04:12:18;;;;;;;20.99;18.85;;;;;;;0.99;84.56;101159.63;458285;113;930184;-74
2021/12/31 04:13:21;;;;;;;20.59;18.52;;;;;;;1.00;84.57;101153.25;458436;113;922669;-75
2021/12/31 04:14:24;;;;;;;19.23;17.34;;;;;;;0.99;84.61;101147.05;459227;114;922526;-76
2021/12/31 04:15:28;;;;;;;19.12;17.26;;;;;;;1.00;84.60;101146.05;458419;113;922762;-75
2021/12/31 04:16:32;;;;;;;19.44;17.46;;;;;;;1.00;84.59;101151.41;458141;114;922917;-76
2021/12/31 04:17:35;;;;;;;23.24;18.21;;;;;;;0.98;84.62;101153.41;459086;113;922603;-75
2021/12/31 04:18:39;;;;;;;17.75;16.03;;;;;;;0.98;84.67;101155.24;458180;114;930498;-76
2021/12/31 04:19:42;;;;;;;18.15;16.31;;;;;;;0.99;84.70;101146.20;457724;114;923347;-75
2021/12/31 04:20:48;;;;;;;18.19;16.31;;;;;;;1.00;84.74;101153.25;460181;114;927284;-75
2021/12/31 04:21:51;;;;;;;19.76;17.71;;;;;;;1.01;84.77;101146.89;464105;113;922910;-75
2021/12/31 04:22:56;;;;;;;18.71;16.99;;;;;;;1.00;84.74;101140.67;463548;112;922683;-77
2021/12/31 04:24:15;;;;;;;20.50;18.37;;;;;;;1.01;84.77;101147.75;462742;113;930702;-75
2021/12/31 04:25:13;;;;;;;19.38;17.14;;;;;;;1.01;84.83;101153.11;463123;113;922581;-75
2021/12/31 04:26:18;;;;;;;19.03;17.12;;;;;;;1.03;84.84;101152.98;463094;113;922575;-74
2021/12/31 04:27:22;;;;;;;19.46;17.47;;;;;;;1.03;84.82;101144.93;463889;113;922541;-75
2021/12/31 04:28:26;;;;;;;20.46;17.89;;;;;;;1.03;84.80;101144.93;463296;113;922468;-76
2021/12/31 04:29:30;;;;;;;20.87;18.78;;;;;;;1.02;84.75;101137.86;463398;113;923106;-75
2021/12/31 04:30:33;;;;;;;19.05;17.19;;;;;;;1.02;84.76;101141.39;463325;113;922622;-74
2021/12/31 04:31:37;;;;;;;21.10;17.24;;;;;;;1.03;84.72;101142.25;463042;113;922783;-76
2021/12/31 04:32:42;;;;;;;19.32;17.17;;;;;;;1.01;84.66;101145.06;464278;113;930459;-76
2021/12/31 04:33:45;;;;;;;18.16;16.14;;;;;;;1.00;84.64;101148.73;464546;114;928121;-76
2021/12/31 04:34:49;;;;;;;17.76;15.72;;;;;;;0.99;84.62;101144.38;462731;113;923113;-77
2021/12/31 04:35:52;;;;;;;18.21;16.25;;;;;;;0.98;84.57;101148.04;463677;113;926186;-77
2021/12/31 04:36:56;;;;;;;17.67;16.02;;;;;;;0.98;84.50;101148.04;463207;113;930531;-77
2021/12/31 04:37:59;;;;;;;20.08;18.00;;;;;;;0.97;84.49;101156.22;463036;113;922789;-76
2021/12/31 04:39:03;;;;;;;18.53;16.65;;;;;;;0.96;84.50;101155.37;463366;112;922977;-75
2021/12/31 04:40:09;;;;;;;19.50;16.95;;;;;;;0.94;84.47;101146.59;463116;113;922686;-75
2021/12/31 04:41:13;;;;;;;20.90;18.76;;;;;;;0.94;84.46;101138.54;461968;114;922565;-76
2021/12/31 04:42:16;;;;;;;20.57;17.74;;;;;;;0.93;84.48;101142.24;463595;112;923662;-75
2021/12/31 04:43:19;;;;;;;18.67;16.77;;;;;;;0.94;84.56;101141.23;463969;113;930628;-76
2021/12/31 04:44:23;;;;;;;19.04;17.08;;;;;;;0.95;84.52;101144.77;463177;113;930438;-75
2021/12/31 04:45:26;;;;;;;23.62;17.98;;;;;;;0.95;84.58;101139.39;463509;113;922503;-76
2021/12/31 04:46:30;;;;;;;20.24;17.88;;;;;;;0.94;84.55;101130.48;462814;113;922674;-75
2021/12/31 04:47:34;;;;;;;19.34;17.43;;;;;;;0.92;84.56;101135.17;464128;113;930535;-76
2021/12/31 04:48:37;;;;;;;20.75;18.55;;;;;;;0.92;84.59;101137.85;464410;112;927340;-76
2021/12/31 04:49:41;;;;;;;20.71;17.84;;;;;;;0.92;84.61;101140.53;463539;113;922690;-78
2021/12/31 04:50:44;;;;;;;20.48;17.93;;;;;;;0.94;84.56;101151.97;462799;113;922631;-77
2021/12/31 04:51:47;;;;;;;18.76;16.24;;;;;;;0.92;84.52;101143.22;463666;113;922755;-76
2021/12/31 04:52:51;;;;;;;18.56;16.71;;;;;;;0.92;84.52;101147.74;463224;113;922649;-77
2021/12/31 04:53:54;;;;;;;26.40;19.51;;;;;;;0.92;84.49;101147.74;464300;113;923152;-76
2021/12/31 04:54:57;;;;;;;27.39;20.63;;;;;;;0.92;84.45;101145.91;463615;113;930214;-77